sensor_id;sensor_type;location;lat;lon;timestamp;temperature;humidity
24408;DHT22;12542;50.924;4.516;2023-10-13T00:01:57;19.30;99.90
24408;DHT22;12542;50.924;4.516;2023-10-13T00:04:29;19.20;99.90
24408;DHT22;12542;50.924;4.516;2023-10-13T00:07:01;19.20;99.90
24408;DHT22;12542;50.924;4.516;2023-10-13T00:09:28;19.20;99.90
24408;DHT22;12542;50.924;4.516;2023-10-13T00:12:05;19.20;99.90
24408;DHT22;12542;50.924;4.516;2023-10-13T00:14:34;19.20;99.90
24408;DHT22;12542;50.924;4.516;2023-10-13T00:17:01;19.30;99.90
24408;DHT22;12542;50.924;4.516;2023-10-13T00:19:34;19.30;99.90
24408;DHT22;12542;50.924;4.516;2023-10-13T00:22:07;19.30;99.90
24408;DHT22;12542;50.924;4.516;2023-10-13T00:24:38;19.20;99.90
24408;DHT22;12542;50.924;4.516;2023-10-13T00:27:14;19.20;99.90
24408;DHT22;12542;50.924;4.516;2023-10-13T00:30:05;19.20;99.90
24408;DHT22;12542;50.924;4.516;2023-10-13T00:32:52;19.20;99.90
24408;DHT22;12542;50.924;4.516;2023-10-13T00:35:29;19.30;99.90
24408;DHT22;12542;50.924;4.516;2023-10-13T00:37:55;19.20;99.90
24408;DHT22;12542;50.924;4.516;2023-10-13T00:40:23;19.10;99.90
24408;DHT22;12542;50.924;4.516;2023-10-13T00:42:55;19.00;99.90
24408;DHT22;12542;50.924;4.516;2023-10-13T00:45:31;18.90;99.90
24408;DHT22;12542;50.924;4.516;2023-10-13T00:47:59;18.80;99.90
24408;DHT22;12542;50.924;4.516;2023-10-13T00:50:27;18.80;99.90
24408;DHT22;12542;50.924;4.516;2023-10-13T00:52:56;18.70;99.90
24408;DHT22;12542;50.924;4.516;2023-10-13T00:55:21;18.70;99.90
24408;DHT22;12542;50.924;4.516;2023-10-13T00:57:52;18.70;99.90
24408;DHT22;12542;50.924;4.516;2023-10-13T01:00:20;18.60;99.90
24408;DHT22;12542;50.924;4.516;2023-10-13T01:02:50;18.60;99.90
24408;DHT22;12542;50.924;4.516;2023-10-13T01:05:23;18.50;99.90
24408;DHT22;12542;50.924;4.516;2023-10-13T01:07:50;18.50;99.90
24408;DHT22;12542;50.924;4.516;2023-10-13T01:10:20;18.40;99.90
24408;DHT22;12542;50.924;4.516;2023-10-13T01:12:49;18.50;99.90
24408;DHT22;12542;50.924;4.516;2023-10-13T01:15:18;18.50;99.90
24408;DHT22;12542;50.924;4.516;2023-10-13T01:17:46;18.50;99.90
24408;DHT22;12542;50.924;4.516;2023-10-13T01:20:15;18.50;99.90
24408;DHT22;12542;50.924;4.516;2023-10-13T01:22:51;18.50;99.90
24408;DHT22;12542;50.924;4.516;2023-10-13T01:25:24;18.70;99.90
24408;DHT22;12542;50.924;4.516;2023-10-13T01:27:53;18.60;99.90
24408;DHT22;12542;50.924;4.516;2023-10-13T01:30:19;18.60;99.90
24408;DHT22;12542;50.924;4.516;2023-10-13T01:32:52;18.60;99.90
24408;DHT22;12542;50.924;4.516;2023-10-13T01:35:19;18.60;99.90
24408;DHT22;12542;50.924;4.516;2023-10-13T01:37:51;18.70;99.90
24408;DHT22;12542;50.924;4.516;2023-10-13T01:40:16;18.80;99.90
24408;DHT22;12542;50.924;4.516;2023-10-13T01:42:48;18.70;99.90
24408;DHT22;12542;50.924;4.516;2023-10-13T01:45:21;18.60;99.90
24408;DHT22;12542;50.924;4.516;2023-10-13T01:47:46;18.60;99.90
24408;DHT22;12542;50.924;4.516;2023-10-13T01:50:17;18.70;99.90
24408;DHT22;12542;50.924;4.516;2023-10-13T01:53:00;18.70;99.90
24408;DHT22;12542;50.924;4.516;2023-10-13T01:55:41;18.70;99.90
24408;DHT22;12542;50.924;4.516;2023-10-13T01:58:14;18.60;99.90
24408;DHT22;12542;50.924;4.516;2023-10-13T02:00:43;18.60;99.90
24408;DHT22;12542;50.924;4.516;2023-10-13T02:03:10;18.60;99.90
24408;DHT22;12542;50.924;4.516;2023-10-13T02:05:46;18.60;99.90
24408;DHT22;12542;50.924;4.516;2023-10-13T02:08:19;18.60;99.90
24408;DHT22;12542;50.924;4.516;2023-10-13T02:10:58;18.60;99.90
24408;DHT22;12542;50.924;4.516;2023-10-13T02:13:26;18.60;99.90
24408;DHT22;12542;50.924;4.516;2023-10-13T02:15:56;18.60;99.90
24408;DHT22;12542;50.924;4.516;2023-10-13T02:18:23;18.60;99.90
24408;DHT22;12542;50.924;4.516;2023-10-13T02:20:56;18.70;99.90
24408;DHT22;12542;50.924;4.516;2023-10-13T02:23:25;18.70;99.90
24408;DHT22;12542;50.924;4.516;2023-10-13T02:25:55;18.60;99.90
24408;DHT22;12542;50.924;4.516;2023-10-13T02:28:29;18.60;99.90
24408;DHT22;12542;50.924;4.516;2023-10-13T02:31:04;18.60;99.90
24408;DHT22;12542;50.924;4.516;2023-10-13T02:33:32;18.60;99.90
24408;DHT22;12542;50.924;4.516;2023-10-13T02:36:03;18.60;99.90
24408;DHT22;12542;50.924;4.516;2023-10-13T02:38:33;18.60;99.90
24408;DHT22;12542;50.924;4.516;2023-10-13T02:41:18;18.60;99.90
24408;DHT22;12542;50.924;4.516;2023-10-13T02:43:55;18.60;99.90
24408;DHT22;12542;50.924;4.516;2023-10-13T02:46:22;18.60;99.90
24408;DHT22;12542;50.924;4.516;2023-10-13T02:48:50;18.60;99.90
24408;DHT22;12542;50.924;4.516;2023-10-13T02:51:20;18.70;99.90
24408;DHT22;12542;50.924;4.516;2023-10-13T02:54:01;18.70;99.90
24408;DHT22;12542;50.924;4.516;2023-10-13T02:56:57;18.70;99.90
24408;DHT22;12542;50.924;4.516;2023-10-13T02:59:25;18.70;99.90
24408;DHT22;12542;50.924;4.516;2023-10-13T03:02:07;18.70;99.90
24408;DHT22;12542;50.924;4.516;2023-10-13T03:04:45;18.70;99.90
24408;DHT22;12542;50.924;4.516;2023-10-13T03:07:11;18.70;99.90
24408;DHT22;12542;50.924;4.516;2023-10-13T03:09:41;18.70;99.90
24408;DHT22;12542;50.924;4.516;2023-10-13T03:12:15;18.70;99.90
24408;DHT22;12542;50.924;4.516;2023-10-13T03:14:41;18.80;99.90
24408;DHT22;12542;50.924;4.516;2023-10-13T03:17:07;18.70;99.90
24408;DHT22;12542;50.924;4.516;2023-10-13T03:19:44;18.70;99.90
24408;DHT22;12542;50.924;4.516;2023-10-13T03:22:17;18.70;99.90
24408;DHT22;12542;50.924;4.516;2023-10-13T03:24:44;18.70;99.90
24408;DHT22;12542;50.924;4.516;2023-10-13T03:27:16;18.60;99.90
24408;DHT22;12542;50.924;4.516;2023-10-13T03:29:44;18.70;99.90
24408;DHT22;12542;50.924;4.516;2023-10-13T03:32:11;18.80;99.90
24408;DHT22;12542;50.924;4.516;2023-10-13T03:34:47;18.80;99.90
24408;DHT22;12542;50.924;4.516;2023-10-13T03:37:19;18.80;99.90
24408;DHT22;12542;50.924;4.516;2023-10-13T03:40:02;18.80;99.90
24408;DHT22;12542;50.924;4.516;2023-10-13T03:42:31;19.00;99.90
24408;DHT22;12542;50.924;4.516;2023-10-13T03:44:57;19.00;99.90
24408;DHT22;12542;50.924;4.516;2023-10-13T03:47:23;19.10;99.90
24408;DHT22;12542;50.924;4.516;2023-10-13T03:49:57;19.10;99.90
24408;DHT22;12542;50.924;4.516;2023-10-13T03:52:41;19.00;99.90
24408;DHT22;12542;50.924;4.516;2023-10-13T03:55:08;19.00;99.90
24408;DHT22;12542;50.924;4.516;2023-10-13T03:57:41;19.10;99.90
24408;DHT22;12542;50.924;4.516;2023-10-13T04:00:08;19.10;99.90
24408;DHT22;12542;50.924;4.516;2023-10-13T04:02:35;19.00;99.90
24408;DHT22;12542;50.924;4.516;2023-10-13T04:05:03;19.00;99.90
24408;DHT22;12542;50.924;4.516;2023-10-13T04:07:35;19.10;99.90
24408;DHT22;12542;50.924;4.516;2023-10-13T04:10:26;19.20;99.90
24408;DHT22;12542;50.924;4.516;2023-10-13T04:13:10;19.10;99.90
24408;DHT22;12542;50.924;4.516;2023-10-13T04:15:55;19.10;99.90
24408;DHT22;12542;50.924;4.516;2023-10-13T04:18:39;19.10;99.90
24408;DHT22;12542;50.924;4.516;2023-10-13T04:21:20;19.30;99.90
24408;DHT22;12542;50.924;4.516;2023-10-13T04:24:12;19.30;99.90
24408;DHT22;12542;50.924;4.516;2023-10-13T04:26:44;19.40;99.90
24408;DHT22;12542;50.924;4.516;2023-10-13T04:29:29;19.40;99.90
24408;DHT22;12542;50.924;4.516;2023-10-13T04:32:13;19.20;99.90
24408;DHT22;12542;50.924;4.516;2023-10-13T04:34:41;19.20;99.90
24408;DHT22;12542;50.924;4.516;2023-10-13T04:37:11;19.20;99.90
24408;DHT22;12542;50.924;4.516;2023-10-13T04:39:58;19.20;99.90
24408;DHT22;12542;50.924;4.516;2023-10-13T04:42:36;19.10;99.90
24408;DHT22;12542;50.924;4.516;2023-10-13T04:45:08;19.00;99.90
24408;DHT22;12542;50.924;4.516;2023-10-13T04:47:53;18.90;99.90
24408;DHT22;12542;50.924;4.516;2023-10-13T04:50:23;18.80;99.90
24408;DHT22;12542;50.924;4.516;2023-10-13T04:52:59;18.70;99.90
24408;DHT22;12542;50.924;4.516;2023-10-13T04:55:28;18.60;99.90
24408;DHT22;12542;50.924;4.516;2023-10-13T04:58:25;18.60;99.90
24408;DHT22;12542;50.924;4.516;2023-10-13T05:00:59;18.70;99.90
24408;DHT22;12542;50.924;4.516;2023-10-13T05:03:44;18.60;99.90
24408;DHT22;12542;50.924;4.516;2023-10-13T05:06:38;18.60;99.90
24408;DHT22;12542;50.924;4.516;2023-10-13T05:09:07;18.60;99.90
24408;DHT22;12542;50.924;4.516;2023-10-13T05:11:52;18.60;99.90
24408;DHT22;12542;50.924;4.516;2023-10-13T05:14:36;18.60;99.90
24408;DHT22;12542;50.924;4.516;2023-10-13T05:17:20;18.50;99.90
24408;DHT22;12542;50.924;4.516;2023-10-13T05:20:04;18.60;99.90
24408;DHT22;12542;50.924;4.516;2023-10-13T05:22:48;18.60;99.90
24408;DHT22;12542;50.924;4.516;2023-10-13T05:25:37;18.60;99.90
24408;DHT22;12542;50.924;4.516;2023-10-13T05:28:21;18.60;99.90
24408;DHT22;12542;50.924;4.516;2023-10-13T05:31:09;18.60;99.90
24408;DHT22;12542;50.924;4.516;2023-10-13T05:33:53;18.60;99.90
24408;DHT22;12542;50.924;4.516;2023-10-13T05:36:40;18.60;99.90
24408;DHT22;12542;50.924;4.516;2023-10-13T05:39:24;18.60;99.90
24408;DHT22;12542;50.924;4.516;2023-10-13T05:42:08;18.60;99.90
24408;DHT22;12542;50.924;4.516;2023-10-13T05:44:52;18.60;99.90
24408;DHT22;12542;50.924;4.516;2023-10-13T05:47:53;18.50;99.90
24408;DHT22;12542;50.924;4.516;2023-10-13T05:50:37;18.50;99.90
24408;DHT22;12542;50.924;4.516;2023-10-13T05:53:34;18.50;99.90
24408;DHT22;12542;50.924;4.516;2023-10-13T05:56:19;18.40;99.90
24408;DHT22;12542;50.924;4.516;2023-10-13T05:59:03;18.40;99.90
24408;DHT22;12542;50.924;4.516;2023-10-13T06:01:47;18.40;99.90
24408;DHT22;12542;50.924;4.516;2023-10-13T06:04:31;18.40;99.90
24408;DHT22;12542;50.924;4.516;2023-10-13T06:07:15;18.30;99.90
24408;DHT22;12542;50.924;4.516;2023-10-13T06:09:59;18.40;99.90
24408;DHT22;12542;50.924;4.516;2023-10-13T06:12:43;18.40;99.90
24408;DHT22;12542;50.924;4.516;2023-10-13T06:15:28;18.50;99.90
24408;DHT22;12542;50.924;4.516;2023-10-13T06:18:12;18.50;99.90
24408;DHT22;12542;50.924;4.516;2023-10-13T06:20:56;18.50;99.90
24408;DHT22;12542;50.924;4.516;2023-10-13T06:23:40;18.50;99.90
24408;DHT22;12542;50.924;4.516;2023-10-13T06:26:24;18.50;99.90
24408;DHT22;12542;50.924;4.516;2023-10-13T06:29:08;18.60;99.90
24408;DHT22;12542;50.924;4.516;2023-10-13T06:31:35;18.60;99.90
24408;DHT22;12542;50.924;4.516;2023-10-13T06:34:02;18.60;99.90
24408;DHT22;12542;50.924;4.516;2023-10-13T06:36:28;18.60;99.90
24408;DHT22;12542;50.924;4.516;2023-10-13T06:38:54;18.70;99.90
24408;DHT22;12542;50.924;4.516;2023-10-13T06:41:42;18.80;99.90
24408;DHT22;12542;50.924;4.516;2023-10-13T06:44:09;18.80;99.90
24408;DHT22;12542;50.924;4.516;2023-10-13T06:46:41;18.90;99.90
24408;DHT22;12542;50.924;4.516;2023-10-13T06:49:07;19.00;99.90
24408;DHT22;12542;50.924;4.516;2023-10-13T06:51:36;19.00;99.90
24408;DHT22;12542;50.924;4.516;2023-10-13T06:54:04;19.10;99.90
24408;DHT22;12542;50.924;4.516;2023-10-13T06:56:35;19.20;99.90
24408;DHT22;12542;50.924;4.516;2023-10-13T06:59:05;19.30;99.90
24408;DHT22;12542;50.924;4.516;2023-10-13T07:01:32;19.40;99.90
24408;DHT22;12542;50.924;4.516;2023-10-13T07:04:08;19.50;99.90
24408;DHT22;12542;50.924;4.516;2023-10-13T07:06:41;19.60;99.90
24408;DHT22;12542;50.924;4.516;2023-10-13T07:09:15;19.80;99.90
24408;DHT22;12542;50.924;4.516;2023-10-13T07:12:05;20.00;99.90
24408;DHT22;12542;50.924;4.516;2023-10-13T07:14:52;20.20;99.90
24408;DHT22;12542;50.924;4.516;2023-10-13T07:17:19;20.30;99.90
24408;DHT22;12542;50.924;4.516;2023-10-13T07:19:54;20.40;99.90
24408;DHT22;12542;50.924;4.516;2023-10-13T07:22:22;20.20;99.90
24408;DHT22;12542;50.924;4.516;2023-10-13T07:24:50;20.30;99.90
24408;DHT22;12542;50.924;4.516;2023-10-13T07:27:19;20.40;99.90
24408;DHT22;12542;50.924;4.516;2023-10-13T07:29:52;20.60;99.90
24408;DHT22;12542;50.924;4.516;2023-10-13T07:32:36;20.80;99.90
24408;DHT22;12542;50.924;4.516;2023-10-13T07:35:02;21.10;99.90
24408;DHT22;12542;50.924;4.516;2023-10-13T07:37:37;21.20;99.90
24408;DHT22;12542;50.924;4.516;2023-10-13T07:40:10;21.10;99.90
24408;DHT22;12542;50.924;4.516;2023-10-13T07:42:51;20.80;99.90
24408;DHT22;12542;50.924;4.516;2023-10-13T07:45:17;20.60;99.90
24408;DHT22;12542;50.924;4.516;2023-10-13T07:47:50;20.40;99.90
24408;DHT22;12542;50.924;4.516;2023-10-13T07:50:16;20.30;99.90
24408;DHT22;12542;50.924;4.516;2023-10-13T07:52:50;20.30;99.90
24408;DHT22;12542;50.924;4.516;2023-10-13T07:55:31;20.40;99.90
24408;DHT22;12542;50.924;4.516;2023-10-13T07:57:59;20.40;99.90
24408;DHT22;12542;50.924;4.516;2023-10-13T08:00:26;20.40;99.90
24408;DHT22;12542;50.924;4.516;2023-10-13T08:03:04;20.60;99.90
24408;DHT22;12542;50.924;4.516;2023-10-13T08:05:43;20.70;99.90
24408;DHT22;12542;50.924;4.516;2023-10-13T08:08:33;20.70;99.90
24408;DHT22;12542;50.924;4.516;2023-10-13T08:11:15;20.90;99.90
24408;DHT22;12542;50.924;4.516;2023-10-13T08:13:54;20.80;99.90
24408;DHT22;12542;50.924;4.516;2023-10-13T08:16:20;20.90;99.90
24408;DHT22;12542;50.924;4.516;2023-10-13T08:18:52;20.80;99.90
24408;DHT22;12542;50.924;4.516;2023-10-13T08:21:18;21.00;99.90
24408;DHT22;12542;50.924;4.516;2023-10-13T08:23:52;21.20;99.90
24408;DHT22;12542;50.924;4.516;2023-10-13T08:26:26;21.30;99.90
24408;DHT22;12542;50.924;4.516;2023-10-13T08:28:56;21.60;99.90
24408;DHT22;12542;50.924;4.516;2023-10-13T08:31:22;21.50;99.90
24408;DHT22;12542;50.924;4.516;2023-10-13T08:33:51;21.40;99.90
24408;DHT22;12542;50.924;4.516;2023-10-13T08:36:23;21.20;99.90
24408;DHT22;12542;50.924;4.516;2023-10-13T08:38:56;21.20;99.90
24408;DHT22;12542;50.924;4.516;2023-10-13T08:41:25;21.20;99.90
24408;DHT22;12542;50.924;4.516;2023-10-13T08:43:56;21.10;99.90
24408;DHT22;12542;50.924;4.516;2023-10-13T08:46:30;21.20;99.90
24408;DHT22;12542;50.924;4.516;2023-10-13T08:49:00;21.30;99.90
24408;DHT22;12542;50.924;4.516;2023-10-13T08:51:35;21.40;99.90
24408;DHT22;12542;50.924;4.516;2023-10-13T08:54:32;21.40;99.90
24408;DHT22;12542;50.924;4.516;2023-10-13T08:57:11;21.40;99.90
24408;DHT22;12542;50.924;4.516;2023-10-13T08:59:55;21.40;99.90
24408;DHT22;12542;50.924;4.516;2023-10-13T09:02:22;21.50;99.90
24408;DHT22;12542;50.924;4.516;2023-10-13T09:05:09;21.50;99.90
24408;DHT22;12542;50.924;4.516;2023-10-13T09:07:57;21.50;99.90
24408;DHT22;12542;50.924;4.516;2023-10-13T09:10:33;21.50;99.90
24408;DHT22;12542;50.924;4.516;2023-10-13T09:12:59;21.40;99.90
24408;DHT22;12542;50.924;4.516;2023-10-13T09:15:30;21.40;99.90
24408;DHT22;12542;50.924;4.516;2023-10-13T09:18:26;21.50;99.90
24408;DHT22;12542;50.924;4.516;2023-10-13T09:21:08;21.40;99.90
24408;DHT22;12542;50.924;4.516;2023-10-13T09:23:53;21.40;99.90
24408;DHT22;12542;50.924;4.516;2023-10-13T09:26:38;21.40;99.90
24408;DHT22;12542;50.924;4.516;2023-10-13T09:29:14;21.60;99.90
24408;DHT22;12542;50.924;4.516;2023-10-13T09:31:43;21.70;99.90
24408;DHT22;12542;50.924;4.516;2023-10-13T09:34:10;21.80;99.90
24408;DHT22;12542;50.924;4.516;2023-10-13T09:36:36;21.90;99.90
24408;DHT22;12542;50.924;4.516;2023-10-13T09:39:03;21.90;99.90
24408;DHT22;12542;50.924;4.516;2023-10-13T09:41:56;21.80;99.90
24408;DHT22;12542;50.924;4.516;2023-10-13T09:44:21;21.80;99.90
24408;DHT22;12542;50.924;4.516;2023-10-13T09:46:47;21.90;99.90
24408;DHT22;12542;50.924;4.516;2023-10-13T09:49:17;21.90;99.90
24408;DHT22;12542;50.924;4.516;2023-10-13T09:52:01;21.90;99.90
24408;DHT22;12542;50.924;4.516;2023-10-13T09:54:34;22.10;99.90
24408;DHT22;12542;50.924;4.516;2023-10-13T09:57:15;22.20;99.90
24408;DHT22;12542;50.924;4.516;2023-10-13T09:59:48;22.30;99.90
24408;DHT22;12542;50.924;4.516;2023-10-13T10:02:18;22.40;99.90
24408;DHT22;12542;50.924;4.516;2023-10-13T10:04:56;22.60;99.90
24408;DHT22;12542;50.924;4.516;2023-10-13T10:07:39;22.50;99.90
24408;DHT22;12542;50.924;4.516;2023-10-13T10:10:09;22.40;99.90
24408;DHT22;12542;50.924;4.516;2023-10-13T10:12:49;22.50;99.90
24408;DHT22;12542;50.924;4.516;2023-10-13T10:15:22;22.50;99.90
24408;DHT22;12542;50.924;4.516;2023-10-13T10:18:21;22.60;99.90
24408;DHT22;12542;50.924;4.516;2023-10-13T10:21:03;22.50;99.90
24408;DHT22;12542;50.924;4.516;2023-10-13T10:23:33;22.50;99.90
24408;DHT22;12542;50.924;4.516;2023-10-13T10:26:14;22.50;99.90
24408;DHT22;12542;50.924;4.516;2023-10-13T10:28:47;22.70;99.90
24408;DHT22;12542;50.924;4.516;2023-10-13T10:31:13;22.70;99.90
24408;DHT22;12542;50.924;4.516;2023-10-13T10:33:47;22.70;99.90
24408;DHT22;12542;50.924;4.516;2023-10-13T10:36:28;22.80;99.90
24408;DHT22;12542;50.924;4.516;2023-10-13T10:38:56;22.90;99.90
24408;DHT22;12542;50.924;4.516;2023-10-13T10:41:29;23.00;99.90
24408;DHT22;12542;50.924;4.516;2023-10-13T10:44:10;23.00;99.90
24408;DHT22;12542;50.924;4.516;2023-10-13T10:46:41;23.10;99.90
24408;DHT22;12542;50.924;4.516;2023-10-13T10:49:19;23.10;99.90
24408;DHT22;12542;50.924;4.516;2023-10-13T10:52:00;23.20;99.90
24408;DHT22;12542;50.924;4.516;2023-10-13T10:54:27;23.20;99.90
24408;DHT22;12542;50.924;4.516;2023-10-13T10:56:58;23.10;99.90
24408;DHT22;12542;50.924;4.516;2023-10-13T10:59:39;23.30;99.90
24408;DHT22;12542;50.924;4.516;2023-10-13T11:02:06;23.60;99.90
24408;DHT22;12542;50.924;4.516;2023-10-13T11:04:32;23.60;99.90
24408;DHT22;12542;50.924;4.516;2023-10-13T11:07:07;23.80;99.90
24408;DHT22;12542;50.924;4.516;2023-10-13T11:09:35;23.90;99.90
24408;DHT22;12542;50.924;4.516;2023-10-13T11:14:41;23.90;99.90
24408;DHT22;12542;50.924;4.516;2023-10-13T11:17:07;23.80;99.90
24408;DHT22;12542;50.924;4.516;2023-10-13T11:19:46;23.70;99.90
24408;DHT22;12542;50.924;4.516;2023-10-13T11:22:12;23.80;99.90
24408;DHT22;12542;50.924;4.516;2023-10-13T11:24:55;23.90;99.90
24408;DHT22;12542;50.924;4.516;2023-10-13T11:27:29;23.90;99.90
24408;DHT22;12542;50.924;4.516;2023-10-13T11:30:10;24.00;99.90
24408;DHT22;12542;50.924;4.516;2023-10-13T11:32:39;24.10;99.90
24408;DHT22;12542;50.924;4.516;2023-10-13T11:35:10;24.10;99.90
24408;DHT22;12542;50.924;4.516;2023-10-13T11:37:46;24.30;99.90
24408;DHT22;12542;50.924;4.516;2023-10-13T11:40:21;24.30;99.90
24408;DHT22;12542;50.924;4.516;2023-10-13T11:43:07;24.60;99.90
24408;DHT22;12542;50.924;4.516;2023-10-13T11:45:40;24.50;99.90
24408;DHT22;12542;50.924;4.516;2023-10-13T11:48:25;24.70;99.90
24408;DHT22;12542;50.924;4.516;2023-10-13T11:51:02;24.70;99.90
24408;DHT22;12542;50.924;4.516;2023-10-13T11:53:38;24.70;99.90
24408;DHT22;12542;50.924;4.516;2023-10-13T11:56:06;24.70;99.90
24408;DHT22;12542;50.924;4.516;2023-10-13T11:58:38;24.60;99.90
24408;DHT22;12542;50.924;4.516;2023-10-13T12:01:06;24.60;99.90
24408;DHT22;12542;50.924;4.516;2023-10-13T12:03:42;24.70;99.90
24408;DHT22;12542;50.924;4.516;2023-10-13T12:06:27;24.80;99.90
24408;DHT22;12542;50.924;4.516;2023-10-13T12:09:09;24.60;99.90
24408;DHT22;12542;50.924;4.516;2023-10-13T12:12:04;24.50;99.90
24408;DHT22;12542;50.924;4.516;2023-10-13T12:14:30;24.40;99.90
24408;DHT22;12542;50.924;4.516;2023-10-13T12:17:06;24.40;99.90
24408;DHT22;12542;50.924;4.516;2023-10-13T12:19:36;24.40;99.90
24408;DHT22;12542;50.924;4.516;2023-10-13T12:22:04;24.30;99.90
24408;DHT22;12542;50.924;4.516;2023-10-13T12:24:33;24.20;99.90
24408;DHT22;12542;50.924;4.516;2023-10-13T12:27:02;24.30;99.90
24408;DHT22;12542;50.924;4.516;2023-10-13T12:29:45;24.10;99.90
24408;DHT22;12542;50.924;4.516;2023-10-13T12:32:12;24.00;99.90
24408;DHT22;12542;50.924;4.516;2023-10-13T12:34:40;23.90;99.90
24408;DHT22;12542;50.924;4.516;2023-10-13T12:37:30;23.90;99.90
24408;DHT22;12542;50.924;4.516;2023-10-13T12:40:05;23.80;99.90
24408;DHT22;12542;50.924;4.516;2023-10-13T12:42:50;23.80;99.90
24408;DHT22;12542;50.924;4.516;2023-10-13T12:45:44;23.60;99.90
24408;DHT22;12542;50.924;4.516;2023-10-13T12:48:30;23.60;99.90
24408;DHT22;12542;50.924;4.516;2023-10-13T12:51:16;23.80;99.90
24408;DHT22;12542;50.924;4.516;2023-10-13T12:53:54;23.60;99.90
24408;DHT22;12542;50.924;4.516;2023-10-13T12:56:30;23.60;99.90
24408;DHT22;12542;50.924;4.516;2023-10-13T12:58:56;23.50;99.90
24408;DHT22;12542;50.924;4.516;2023-10-13T13:01:24;23.50;99.90
24408;DHT22;12542;50.924;4.516;2023-10-13T13:03:51;23.50;99.90
24408;DHT22;12542;50.924;4.516;2023-10-13T13:06:22;23.60;99.90
24408;DHT22;12542;50.924;4.516;2023-10-13T13:08:54;23.60;99.90
24408;DHT22;12542;50.924;4.516;2023-10-13T13:11:20;23.60;99.90
24408;DHT22;12542;50.924;4.516;2023-10-13T13:13:46;23.70;99.90
24408;DHT22;12542;50.924;4.516;2023-10-13T13:16:16;23.60;99.90
24408;DHT22;12542;50.924;4.516;2023-10-13T13:18:55;23.60;99.90
24408;DHT22;12542;50.924;4.516;2023-10-13T13:21:21;23.80;99.90
24408;DHT22;12542;50.924;4.516;2023-10-13T13:23:52;23.80;99.90
24408;DHT22;12542;50.924;4.516;2023-10-13T13:26:24;23.80;99.90
24408;DHT22;12542;50.924;4.516;2023-10-13T13:28:50;24.00;99.90
24408;DHT22;12542;50.924;4.516;2023-10-13T13:31:22;23.80;99.90
24408;DHT22;12542;50.924;4.516;2023-10-13T13:33:55;23.90;99.90
24408;DHT22;12542;50.924;4.516;2023-10-13T13:36:21;23.80;99.90
24408;DHT22;12542;50.924;4.516;2023-10-13T13:38:48;23.70;99.90
24408;DHT22;12542;50.924;4.516;2023-10-13T13:41:22;23.70;99.90
24408;DHT22;12542;50.924;4.516;2023-10-13T13:43:49;23.60;99.90
24408;DHT22;12542;50.924;4.516;2023-10-13T13:46:22;23.50;99.90
24408;DHT22;12542;50.924;4.516;2023-10-13T13:48:53;23.40;99.90
24408;DHT22;12542;50.924;4.516;2023-10-13T13:51:29;23.40;99.90
24408;DHT22;12542;50.924;4.516;2023-10-13T13:53:57;23.50;99.90
24408;DHT22;12542;50.924;4.516;2023-10-13T13:56:24;23.60;99.90
24408;DHT22;12542;50.924;4.516;2023-10-13T13:58:54;23.60;99.90
24408;DHT22;12542;50.924;4.516;2023-10-13T14:01:21;23.70;99.90
24408;DHT22;12542;50.924;4.516;2023-10-13T14:03:48;23.80;99.90
24408;DHT22;12542;50.924;4.516;2023-10-13T14:06:25;23.70;99.90
24408;DHT22;12542;50.924;4.516;2023-10-13T14:08:56;23.70;99.90
24408;DHT22;12542;50.924;4.516;2023-10-13T14:11:24;23.60;99.90
24408;DHT22;12542;50.924;4.516;2023-10-13T14:14:10;23.50;99.90
24408;DHT22;12542;50.924;4.516;2023-10-13T14:16:54;23.50;99.90
24408;DHT22;12542;50.924;4.516;2023-10-13T14:19:28;23.40;99.90
24408;DHT22;12542;50.924;4.516;2023-10-13T14:21:57;23.40;99.90
24408;DHT22;12542;50.924;4.516;2023-10-13T14:24:24;23.50;99.90
24408;DHT22;12542;50.924;4.516;2023-10-13T14:27:02;23.60;99.90
24408;DHT22;12542;50.924;4.516;2023-10-13T14:29:35;23.60;99.90
24408;DHT22;12542;50.924;4.516;2023-10-13T14:32:06;23.50;99.90
24408;DHT22;12542;50.924;4.516;2023-10-13T14:34:33;23.60;99.90
24408;DHT22;12542;50.924;4.516;2023-10-13T14:37:00;23.70;99.90
24408;DHT22;12542;50.924;4.516;2023-10-13T14:39:26;23.70;99.90
24408;DHT22;12542;50.924;4.516;2023-10-13T14:41:55;23.60;99.90
24408;DHT22;12542;50.924;4.516;2023-10-13T14:44:21;23.60;99.90
24408;DHT22;12542;50.924;4.516;2023-10-13T14:46:53;23.60;99.90
24408;DHT22;12542;50.924;4.516;2023-10-13T14:49:21;23.60;99.90
24408;DHT22;12542;50.924;4.516;2023-10-13T14:51:47;23.40;99.90
24408;DHT22;12542;50.924;4.516;2023-10-13T14:54:15;23.30;99.90
24408;DHT22;12542;50.924;4.516;2023-10-13T14:56:41;23.20;99.90
24408;DHT22;12542;50.924;4.516;2023-10-13T14:59:08;23.10;99.90
24408;DHT22;12542;50.924;4.516;2023-10-13T15:01:40;23.00;99.90
24408;DHT22;12542;50.924;4.516;2023-10-13T15:04:06;22.90;99.90
24408;DHT22;12542;50.924;4.516;2023-10-13T15:06:33;22.80;99.90
24408;DHT22;12542;50.924;4.516;2023-10-13T15:09:00;22.60;99.90
24408;DHT22;12542;50.924;4.516;2023-10-13T15:11:27;22.60;99.90
24408;DHT22;12542;50.924;4.516;2023-10-13T15:14:02;22.50;99.90
24408;DHT22;12542;50.924;4.516;2023-10-13T15:16:28;22.40;99.90
24408;DHT22;12542;50.924;4.516;2023-10-13T15:18:54;22.40;99.90
24408;DHT22;12542;50.924;4.516;2023-10-13T15:21:20;22.30;99.90
24408;DHT22;12542;50.924;4.516;2023-10-13T15:23:48;22.30;99.90
24408;DHT22;12542;50.924;4.516;2023-10-13T15:26:19;22.20;99.90
24408;DHT22;12542;50.924;4.516;2023-10-13T15:28:47;22.30;99.90
24408;DHT22;12542;50.924;4.516;2023-10-13T15:31:22;22.20;99.90
24408;DHT22;12542;50.924;4.516;2023-10-13T15:34:01;22.10;99.90
24408;DHT22;12542;50.924;4.516;2023-10-13T15:36:33;21.90;99.90
24408;DHT22;12542;50.924;4.516;2023-10-13T15:38:59;21.90;99.90
24408;DHT22;12542;50.924;4.516;2023-10-13T15:41:28;21.80;99.90
24408;DHT22;12542;50.924;4.516;2023-10-13T15:43:55;21.80;99.90
24408;DHT22;12542;50.924;4.516;2023-10-13T15:46:22;21.70;99.90
24408;DHT22;12542;50.924;4.516;2023-10-13T15:48:49;21.80;99.90
24408;DHT22;12542;50.924;4.516;2023-10-13T15:51:15;21.80;99.90
24408;DHT22;12542;50.924;4.516;2023-10-13T15:53:42;21.80;99.90
24408;DHT22;12542;50.924;4.516;2023-10-13T15:56:13;21.80;99.90
24408;DHT22;12542;50.924;4.516;2023-10-13T16:01:11;21.80;99.90
24408;DHT22;12542;50.924;4.516;2023-10-13T16:06:17;21.80;99.90
24408;DHT22;12542;50.924;4.516;2023-10-13T16:08:43;21.70;99.90
24408;DHT22;12542;50.924;4.516;2023-10-13T16:11:11;21.70;99.90
24408;DHT22;12542;50.924;4.516;2023-10-13T16:13:40;21.70;99.90
24408;DHT22;12542;50.924;4.516;2023-10-13T16:16:21;21.70;99.90
24408;DHT22;12542;50.924;4.516;2023-10-13T16:18:51;21.60;99.90
24408;DHT22;12542;50.924;4.516;2023-10-13T16:21:17;21.50;99.90